Portada
METAR-TAF:

METAR-TAF

Aeroports :

Harbin, Xina

latitud: 45-45N, longitud: 126-46E, altitud: 143 m

Observació

L'informe es va fer fa 48 minuts, a les 18:00 UTC
Vent 4 kt del Sud/Sud-Est
Temperatura -21°C
Humitat 84%
Pressió 1031 hPa
Visibilitat: 2800 m
boirina

METAR: ZYHB 261800Z 16002MPS 2800 BR NSC M21/M23 Q1031 BECMG TL1900 3000

Hora: 02:48 (18:48 UTC)

Pronòstic

L'informe es va fer fa 3 hores i 45 minuts, a les 15:03 UTC
Pronòstic vàlid del 26 a les 18 UTC al 27 a les 18 UTC
Vent 8 kt del Oest/Sud-Oest
Visibilitat: 3000 m
Escasses núvols a una alçada de 3300 ft
boirina
Temporalment
l' 26 a les 18 UTC al 26 a les 24 UTC
Visibilitat: 1000 m

TAF: ZYHB 261503Z 2618/2718 25004MPS 3000 BR FEW033 TXM07/2706Z TNM20/2622Z TEMPO 2618/2624 1000

Observacions i pronòstics meteorològics de més de 4000 aeroports (METAR i TAF).

Les estacions disponibles són els punts grocs i vermells al mapa.

Posi el ratolí al punt desitjat per veure el nom de l'estació.

Feu clic per veure les observacions i els pronòstics meteorològics.

Per canviar el mapa: feu clic els botons verds amb una creu de color negre per apropar; al botó verd amb un guió per allunyar la imatge; o en les fletxes verdes per a mapes adjacents.


METAR-TAF: